Spartan — WDF5483 — position and weather

sailwx.info

Track history (hours):
 
Tides and Currents Weather Stations Pressure Air Temp Water Temp Dewpoint Dewpoint Depression Visibility Wind Speed Wind Dir Waves Ship Positions

Spartan

Owner: Occidental Chemical Corporation, Dallas, TX. More information available from US FCC via Universal Licensing System and Coast Guard Vessel Documentation Center.

Last reported at 2017-Dec-24 16:38 UTC. Time now 2018-Feb-19 01:49 UTC.
Position N 45°12' W 085°45'.
Warning: this ship's position is 56 days out of date.

Length 33 m; draft 4.2 m.

Type: Tug. MMSI: 367463740.

Date/timePositionNaut miles runAvg speedWind from/ knotsBaromVisibWave heightAir tempDewpointWater temp
2017-Dec-24 16:38N 45°12' W 085°45'1 8.7
2017-Dec-24 16:30N 45°13' W 085°44'5 8.7
2017-Dec-24 15:58N 45°17' W 085°41'4 8.7
2017-Dec-24 15:30N 45°20' W 085°37'4 8.6
2017-Dec-24 15:00N 45°24' W 085°33'4 8.5
2017-Dec-24 14:30N 45°27' W 085°29'4 8.4
2017-Dec-24 14:00N 45°30' W 085°26'4 8.5
2017-Dec-24 13:30N 45°34' W 085°22'4 8.6
2017-Dec-24 13:00N 45°37' W 085°19'4 8.6
2017-Dec-24 12:30N 45°41' W 085°15'4 8.6
2017-Dec-24 12:00N 45°44' W 085°11'4 8.4
2017-Dec-24 11:30N 45°48' W 085°09'4 7.3
2017-Dec-24 11:00N 45°50' W 085°05'4 8.2
2017-Dec-24 10:30N 45°50' W 084°59'4 8.3
2017-Dec-24 10:00N 45°49' W 084°53'4 8.3
2017-Dec-24 09:30N 45°49' W 084°47'7 8.2
2017-Dec-24 08:37N 45°47' W 084°37'1 8.8
2017-Dec-24 08:30N 45°46' W 084°36'4 8.5
2017-Dec-24 08:00N 45°44' W 084°31'4 8.3
2017-Dec-24 07:30N 45°42' W 084°25'26 8.4
2017-Dec-24 04:22N 45°31' W 083°51'3 6.2
2017-Dec-24 03:57N 45°30' W 083°47'4 8.3
2017-Dec-24 03:29N 45°28' W 083°43'5 8.3
2017-Dec-24 02:56N 45°26' W 083°37'  
2017-Dec-18 13:23N 45°10' W 074°20'7 7.4
2017-Dec-18 12:23N 45°14' W 074°11'3 7.1
2017-Dec-18 12:00N 45°14' W 074°07'3 6.5
2017-Dec-18 11:30N 45°13' W 074°03'3 6.9
2017-Dec-18 11:00N 45°15' W 073°59'4 7.2
2017-Dec-18 10:30N 45°18' W 073°56'0 0.7
2017-Dec-18 10:00N 45°18' W 073°56'1 1.5
2017-Dec-18 09:30N 45°19' W 073°55'1 1.5
2017-Dec-18 09:00N 45°20' W 073°55'3 6.7
2017-Dec-18 08:30N 45°21' W 073°51'4 7.6
2017-Dec-18 08:00N 45°24' W 073°47'4 7.4
2017-Dec-18 07:30N 45°25' W 073°42'3 5.7
2017-Dec-18 07:00N 45°24' W 073°38'1 1.9
2017-Dec-18 06:30N 45°24' W 073°36'2 3.4
2017-Dec-18 06:00N 45°24' W 073°34'0 0.9
2017-Dec-18 05:29N 45°24' W 073°33'1 1.2
2017-Dec-18 05:00N 45°24' W 073°33'2 4.6
2017-Dec-18 04:30N 45°26' W 073°30'2 4.1
2017-Dec-18 03:54N 45°28' W 073°30'1 2.8
2017-Dec-18 03:30N 45°29' W 073°31'  
2017-Dec-15 15:11N 45°30' W 073°31'1 3.0
2017-Dec-15 14:57N 45°29' W 073°31'3 6.4
2017-Dec-15 14:26N 45°26' W 073°30'3 4.1
2017-Dec-15 13:44N 45°24' W 073°34'0 0.2
2017-Dec-15 13:28N 45°24' W 073°34'1 2.6
2017-Dec-15 13:00N 45°24' W 073°36'3 5.9
2017-Dec-15 12:30N 45°25' W 073°40'3 6.7
2017-Dec-15 12:00N 45°24' W 073°45'4 8.9
2017-Dec-15 11:30N 45°22' W 073°50'4 8.8
2017-Dec-15 11:00N 45°19' W 073°55'0 0.8
2017-Dec-15 10:30N 45°19' W 073°55'1 1.5
2017-Dec-15 10:00N 45°18' W 073°56'1 1.9
2017-Dec-15 09:30N 45°17' W 073°56'4 8.7
2017-Dec-15 09:00N 45°14' W 074°00'6 9.8
2017-Dec-15 08:25N 45°14' W 074°08'  
Track history (hours):
 
Tides and Currents Weather Stations Pressure Air Temp Water Temp Dewpoint Dewpoint Depression Visibility Wind Speed Wind Dir Waves Ship Positions

Spartan

Owner: Occidental Chemical Corporation, Dallas, TX. More information available from US FCC via Universal Licensing System and Coast Guard Vessel Documentation Center.

Last reported at 2017-Dec-24 16:38 UTC. Time now 2018-Feb-19 01:49 UTC.
Position N 45°12' W 085°45'.
Warning: this ship's position is 56 days out of date.

Length 33 m; draft 4.2 m.

Type: Tug. MMSI: 367463740.

Date/timePositionNaut miles runAvg speedWind from/ knotsBaromVisibWave heightAir tempDewpointWater temp
2017-Dec-24 16:38N 45°12' W 085°45'1 8.7
2017-Dec-24 16:30N 45°13' W 085°44'5 8.7
2017-Dec-24 15:58N 45°17' W 085°41'4 8.7
2017-Dec-24 15:30N 45°20' W 085°37'4 8.6
2017-Dec-24 15:00N 45°24' W 085°33'4 8.5
2017-Dec-24 14:30N 45°27' W 085°29'4 8.4
2017-Dec-24 14:00N 45°30' W 085°26'4 8.5
2017-Dec-24 13:30N 45°34' W 085°22'4 8.6
2017-Dec-24 13:00N 45°37' W 085°19'4 8.6
2017-Dec-24 12:30N 45°41' W 085°15'4 8.6
2017-Dec-24 12:00N 45°44' W 085°11'4 8.4
2017-Dec-24 11:30N 45°48' W 085°09'4 7.3
2017-Dec-24 11:00N 45°50' W 085°05'4 8.2
2017-Dec-24 10:30N 45°50' W 084°59'4 8.3
2017-Dec-24 10:00N 45°49' W 084°53'4 8.3
2017-Dec-24 09:30N 45°49' W 084°47'7 8.2
2017-Dec-24 08:37N 45°47' W 084°37'1 8.8
2017-Dec-24 08:30N 45°46' W 084°36'4 8.5
2017-Dec-24 08:00N 45°44' W 084°31'4 8.3
2017-Dec-24 07:30N 45°42' W 084°25'26 8.4
2017-Dec-24 04:22N 45°31' W 083°51'3 6.2
2017-Dec-24 03:57N 45°30' W 083°47'4 8.3
2017-Dec-24 03:29N 45°28' W 083°43'5 8.3
2017-Dec-24 02:56N 45°26' W 083°37'  
2017-Dec-18 13:23N 45°10' W 074°20'7 7.4
2017-Dec-18 12:23N 45°14' W 074°11'3 7.1
2017-Dec-18 12:00N 45°14' W 074°07'3 6.5
2017-Dec-18 11:30N 45°13' W 074°03'3 6.9
2017-Dec-18 11:00N 45°15' W 073°59'4 7.2
2017-Dec-18 10:30N 45°18' W 073°56'0 0.7
2017-Dec-18 10:00N 45°18' W 073°56'1 1.5
2017-Dec-18 09:30N 45°19' W 073°55'1 1.5
2017-Dec-18 09:00N 45°20' W 073°55'3 6.7
2017-Dec-18 08:30N 45°21' W 073°51'4 7.6
2017-Dec-18 08:00N 45°24' W 073°47'4 7.4
2017-Dec-18 07:30N 45°25' W 073°42'3 5.7
2017-Dec-18 07:00N 45°24' W 073°38'1 1.9
2017-Dec-18 06:30N 45°24' W 073°36'2 3.4
2017-Dec-18 06:00N 45°24' W 073°34'0 0.9
2017-Dec-18 05:29N 45°24' W 073°33'1 1.2
2017-Dec-18 05:00N 45°24' W 073°33'2 4.6
2017-Dec-18 04:30N 45°26' W 073°30'2 4.1
2017-Dec-18 03:54N 45°28' W 073°30'1 2.8
2017-Dec-18 03:30N 45°29' W 073°31'  
2017-Dec-15 15:11N 45°30' W 073°31'1 3.0
2017-Dec-15 14:57N 45°29' W 073°31'3 6.4
2017-Dec-15 14:26N 45°26' W 073°30'3 4.1
2017-Dec-15 13:44N 45°24' W 073°34'0 0.2
2017-Dec-15 13:28N 45°24' W 073°34'1 2.6
2017-Dec-15 13:00N 45°24' W 073°36'3 5.9
2017-Dec-15 12:30N 45°25' W 073°40'3 6.7
2017-Dec-15 12:00N 45°24' W 073°45'4 8.9
2017-Dec-15 11:30N 45°22' W 073°50'4 8.8
2017-Dec-15 11:00N 45°19' W 073°55'0 0.8
2017-Dec-15 10:30N 45°19' W 073°55'1 1.5
2017-Dec-15 10:00N 45°18' W 073°56'1 1.9
2017-Dec-15 09:30N 45°17' W 073°56'4 8.7
2017-Dec-15 09:00N 45°14' W 074°00'6 9.8
2017-Dec-15 08:25N 45°14' W 074°08'  

Dump ship's entire track history